Time;durP1;ratioP1;P1;durP2;ratioP2;P2;SDS_P1;SDS_P2;PMS_P1;PMS_P2;Temp;Humidity;BMP_temperature;BMP_pressure;BME280_temperature;BME280_humidity;BME280_pressure;Samples;Min_cycle;Max_cycle;Signal;HPM_P1;HPM_P2
2021/10/03 00:01:44;;;;;;;6.60;3.88;;;14.00;99.90;;;;;;5000780;28;20054;-79
2021/10/03 00:04:10;;;;;;;5.65;4.00;;;13.90;99.90;;;;;;4997393;28;20444;-79
2021/10/03 00:06:36;;;;;;;6.78;4.22;;;14.00;99.90;;;;;;5001328;28;20038;-79
2021/10/03 00:09:02;;;;;;;6.25;4.28;;;14.10;99.90;;;;;;4995922;28;20101;-79
2021/10/03 00:11:28;;;;;;;6.38;4.32;;;14.10;99.90;;;;;;5007543;28;20038;-78
2021/10/03 00:13:53;;;;;;;5.75;4.13;;;14.10;99.90;;;;;;4997647;28;20118;-80
2021/10/03 00:16:19;;;;;;;8.07;4.50;;;14.10;99.90;;;;;;5008272;28;20544;-79
2021/10/03 00:18:45;;;;;;;7.30;4.60;;;14.10;99.90;;;;;;4998908;28;20054;-80
2021/10/03 00:21:11;;;;;;;6.45;4.85;;;14.10;99.90;;;;;;4988201;28;20042;-80
2021/10/03 00:23:38;;;;;;;6.93;4.72;;;14.10;99.90;;;;;;5001066;28;20031;-79
2021/10/03 00:26:04;;;;;;;5.75;4.50;;;14.00;99.90;;;;;;4999403;28;20033;-80
2021/10/03 00:28:30;;;;;;;6.13;4.57;;;14.00;99.90;;;;;;5014381;28;20504;-80
2021/10/03 00:30:56;;;;;;;8.45;5.07;;;14.00;99.90;;;;;;4989584;28;20041;-80
2021/10/03 00:33:22;;;;;;;9.02;4.88;;;14.00;99.90;;;;;;4997693;28;20038;-80
2021/10/03 00:35:48;;;;;;;6.95;4.43;;;14.00;99.90;;;;;;5016041;28;20034;-80
2021/10/03 00:38:14;;;;;;;7.20;5.25;;;14.00;99.90;;;;;;4997549;28;20057;-79
2021/10/03 00:40:41;;;;;;;6.75;4.35;;;14.00;99.90;;;;;;4996099;28;20027;-80
2021/10/03 00:43:08;;;;;;;8.50;4.70;;;14.00;99.90;;;;;;5011785;28;20027;-79
2021/10/03 00:45:35;;;;;;;7.75;4.75;;;13.90;99.90;;;;;;5015504;28;20510;-79
2021/10/03 00:48:01;;;;;;;5.85;4.35;;;13.80;99.90;;;;;;5014192;28;20042;-79
2021/10/03 00:50:29;;;;;;;9.38;5.05;;;13.70;99.90;;;;;;4996583;28;20058;-79
2021/10/03 00:52:54;;;;;;;7.70;4.90;;;13.70;99.90;;;;;;5004866;28;20045;-80
2021/10/03 00:55:21;;;;;;;10.05;5.55;;;13.60;99.90;;;;;;4984299;28;20023;-80
2021/10/03 00:57:51;;;;;;;8.80;4.70;;;13.60;99.90;;;;;;4998897;28;20038;-80
2021/10/03 01:00:20;;;;;;;8.70;4.80;;;13.60;99.90;;;;;;4991761;28;20034;-79
2021/10/03 01:02:47;;;;;;;6.88;4.70;;;13.50;99.90;;;;;;4997539;28;20464;-80
2021/10/03 01:05:13;;;;;;;7.93;4.95;;;13.40;99.90;;;;;;4999189;28;20023;-80
2021/10/03 01:07:39;;;;;;;6.82;4.63;;;13.40;99.90;;;;;;4999818;28;20026;-80
2021/10/03 01:10:08;;;;;;;8.07;4.97;;;13.40;99.90;;;;;;4997030;28;20050;-78
2021/10/03 01:12:34;;;;;;;8.05;5.07;;;13.30;99.90;;;;;;5015168;28;20026;-79
2021/10/03 01:15:05;;;;;;;8.30;5.45;;;13.20;99.90;;;;;;4999961;28;20106;-78
2021/10/03 01:17:31;;;;;;;7.65;4.75;;;13.10;99.90;;;;;;4999210;28;20476;-79
2021/10/03 01:19:58;;;;;;;9.95;5.80;;;13.10;99.90;;;;;;5005430;28;20519;-80
2021/10/03 01:22:23;;;;;;;9.27;4.80;;;12.90;99.90;;;;;;4995196;28;20030;-79
2021/10/03 01:24:52;;;;;;;7.53;5.18;;;12.90;99.90;;;;;;4995082;28;20030;-79
2021/10/03 01:27:20;;;;;;;7.70;5.15;;;12.90;99.90;;;;;;5011567;28;20045;-78
2021/10/03 01:29:49;;;;;;;6.13;4.75;;;12.90;99.90;;;;;;4998051;23;20041;-79
2021/10/03 01:32:17;;;;;;;9.93;5.20;;;12.80;99.90;;;;;;4987801;28;20057;-79
2021/10/03 01:34:43;;;;;;;9.70;5.95;;;12.70;99.90;;;;;;4985645;28;20045;-80
2021/10/03 01:37:09;;;;;;;9.13;5.45;;;12.70;99.90;;;;;;4970105;28;20459;-79
2021/10/03 01:39:36;;;;;;;6.85;5.07;;;12.70;99.90;;;;;;4964170;28;20031;-80
2021/10/03 01:42:02;;;;;;;7.82;4.47;;;12.70;99.90;;;;;;4981943;28;20035;-79
2021/10/03 01:44:27;;;;;;;7.38;5.30;;;12.70;99.90;;;;;;4983274;28;20030;-79
2021/10/03 01:46:53;;;;;;;7.97;4.72;;;12.70;99.90;;;;;;4986425;28;20481;-77
2021/10/03 01:49:19;;;;;;;7.70;4.65;;;12.70;99.90;;;;;;4979523;28;20653;-80
2021/10/03 01:51:45;;;;;;;7.38;4.90;;;12.60;99.90;;;;;;4978912;28;20043;-80
2021/10/03 01:54:10;;;;;;;7.40;4.85;;;12.60;99.90;;;;;;4969778;28;20102;-80
2021/10/03 01:56:38;;;;;;;7.03;5.10;;;12.60;99.90;;;;;;4971619;28;20097;-79
2021/10/03 01:59:05;;;;;;;7.15;5.20;;;12.50;99.90;;;;;;4964571;28;20062;-79
2021/10/03 02:01:43;;;;;;;7.00;5.18;;;12.50;99.90;;;;;;4984642;28;20037;-80
2021/10/03 02:04:21;;;;;;;7.10;4.90;;;12.50;99.90;;;;;;4981094;28;20554;-81
2021/10/03 02:06:50;;;;;;;11.38;4.85;;;12.60;99.90;;;;;;4966553;28;20059;-80
2021/10/03 02:09:18;;;;;;;6.90;5.10;;;12.60;99.90;;;;;;4984666;28;20037;-80
2021/10/03 02:11:48;;;;;;;9.63;5.35;;;12.70;99.90;;;;;;4976928;28;20034;-79
2021/10/03 02:14:18;;;;;;;6.40;4.32;;;12.70;99.90;;;;;;4981278;28;20038;-80
2021/10/03 02:16:44;;;;;;;7.72;4.25;;;12.70;99.90;;;;;;4966745;28;20049;-81
2021/10/03 02:19:11;;;;;;;6.68;4.28;;;12.70;99.90;;;;;;4978632;28;20022;-79
2021/10/03 02:21:37;;;;;;;6.03;4.28;;;12.70;99.90;;;;;;4981644;28;20081;-80
2021/10/03 02:24:06;;;;;;;4.65;3.58;;;12.80;99.90;;;;;;4968029;28;20117;-80
2021/10/03 02:26:32;;;;;;;5.28;3.70;;;12.80;99.90;;;;;;4985219;28;20037;-81
2021/10/03 02:28:58;;;;;;;5.13;3.15;;;12.80;99.90;;;;;;4981902;28;20042;-80
2021/10/03 02:31:24;;;;;;;4.32;3.03;;;12.70;99.90;;;;;;4976608;28;20085;-80
2021/10/03 02:33:51;;;;;;;5.65;3.78;;;12.60;99.90;;;;;;4983323;28;20564;-80
2021/10/03 02:36:19;;;;;;;4.30;3.42;;;12.60;99.90;;;;;;4949390;28;20046;-80
2021/10/03 02:38:45;;;;;;;5.65;3.20;;;12.50;99.90;;;;;;4983009;28;20042;-79
2021/10/03 02:41:12;;;;;;;4.15;2.90;;;12.50;99.90;;;;;;4979294;28;20030;-80
2021/10/03 02:43:40;;;;;;;5.55;3.13;;;12.60;99.90;;;;;;4978840;28;20527;-80
2021/10/03 02:46:06;;;;;;;4.97;3.47;;;12.50;99.90;;;;;;4981382;28;20033;-81
2021/10/03 02:48:35;;;;;;;4.93;3.20;;;12.50;99.90;;;;;;4965784;28;20373;-79
2021/10/03 02:51:01;;;;;;;4.30;3.30;;;12.50;99.90;;;;;;4961151;28;20038;-79
2021/10/03 02:53:27;;;;;;;3.80;2.47;;;12.50;99.90;;;;;;4984036;28;20056;-81
2021/10/03 02:55:54;;;;;;;6.57;3.22;;;12.50;99.90;;;;;;4979860;28;20478;-80
2021/10/03 02:58:21;;;;;;;4.03;2.67;;;12.40;99.90;;;;;;4980721;28;20027;-78
2021/10/03 03:00:50;;;;;;;3.95;3.03;;;12.50;99.90;;;;;;4981589;28;20034;-79
2021/10/03 03:03:16;;;;;;;3.80;2.85;;;12.40;99.90;;;;;;4967375;28;20440;-79
2021/10/03 03:05:42;;;;;;;4.65;3.30;;;12.40;99.90;;;;;;4982204;28;20023;-78
2021/10/03 03:08:07;;;;;;;6.13;3.35;;;12.50;99.90;;;;;;4967678;28;20105;-79
2021/10/03 03:10:34;;;;;;;5.63;3.35;;;12.50;99.90;;;;;;4975251;28;20768;-80
2021/10/03 03:13:00;;;;;;;5.15;3.38;;;12.50;99.90;;;;;;4980592;28;20034;-78
2021/10/03 03:15:27;;;;;;;6.18;3.47;;;12.50;99.90;;;;;;4967334;28;20706;-80
2021/10/03 03:17:52;;;;;;;4.05;3.22;;;12.50;99.90;;;;;;4965865;28;20030;-81
2021/10/03 03:20:18;;;;;;;3.72;2.90;;;12.50;99.90;;;;;;4958359;28;20035;-79
2021/10/03 03:22:44;;;;;;;3.38;2.47;;;12.50;99.90;;;;;;4986802;28;20088;-79
2021/10/03 03:25:12;;;;;;;4.30;3.50;;;12.60;99.90;;;;;;4986784;28;20030;-80
2021/10/03 03:27:39;;;;;;;6.78;3.33;;;12.60;99.90;;;;;;4970275;28;20477;-78
2021/10/03 03:30:06;;;;;;;5.75;3.85;;;12.50;99.90;;;;;;4963092;28;20045;-79
2021/10/03 03:32:32;;;;;;;4.55;3.35;;;12.50;99.90;;;;;;4971159;28;20070;-80
2021/10/03 03:34:58;;;;;;;5.53;3.05;;;12.60;99.90;;;;;;4983035;28;20034;-79
2021/10/03 03:37:24;;;;;;;4.57;3.17;;;12.50;99.90;;;;;;4985087;28;20098;-80
2021/10/03 03:39:50;;;;;;;4.28;3.25;;;12.50;99.90;;;;;;4985764;28;20058;-78
2021/10/03 03:42:16;;;;;;;6.20;3.20;;;12.50;99.90;;;;;;4978862;28;20027;-78
2021/10/03 03:44:42;;;;;;;4.70;3.05;;;12.50;99.90;;;;;;4986633;28;20043;-80
2021/10/03 03:47:07;;;;;;;4.95;3.25;;;12.40;99.90;;;;;;4974759;28;20118;-78
2021/10/03 03:49:33;;;;;;;4.65;3.20;;;12.40;99.90;;;;;;4981353;28;20042;-79
2021/10/03 03:51:59;;;;;;;4.60;2.97;;;12.40;99.90;;;;;;4983303;28;20034;-78
2021/10/03 03:54:25;;;;;;;4.82;3.22;;;12.40;99.90;;;;;;4984833;28;20065;-80
2021/10/03 03:56:51;;;;;;;4.47;3.50;;;12.40;99.90;;;;;;4972997;28;20035;-80
2021/10/03 03:59:16;;;;;;;4.85;3.28;;;12.40;99.90;;;;;;4983709;28;20569;-81
2021/10/03 04:01:43;;;;;;;6.85;3.30;;;12.40;99.90;;;;;;4981279;28;20555;-81
2021/10/03 04:04:09;;;;;;;5.70;3.65;;;12.30;99.90;;;;;;4965549;28;20035;-79
2021/10/03 04:06:35;;;;;;;5.07;3.80;;;12.30;99.90;;;;;;4983991;28;20035;-79
2021/10/03 04:09:01;;;;;;;5.78;3.25;;;12.30;99.90;;;;;;4966698;28;20041;-80
2021/10/03 04:11:27;;;;;;;5.15;3.60;;;12.30;99.90;;;;;;4968793;28;20042;-79
2021/10/03 04:13:52;;;;;;;4.80;3.50;;;12.30;99.90;;;;;;4971185;28;20046;-80
2021/10/03 04:16:18;;;;;;;4.97;3.50;;;12.20;99.90;;;;;;4969383;28;20058;-79
2021/10/03 04:18:47;;;;;;;4.78;3.22;;;12.30;99.90;;;;;;4970606;28;20095;-78
2021/10/03 04:21:12;;;;;;;6.30;3.50;;;12.30;99.90;;;;;;4979714;28;20031;-79
2021/10/03 04:23:39;;;;;;;5.07;3.63;;;12.30;99.90;;;;;;4971368;28;20042;-79
2021/10/03 04:26:04;;;;;;;5.15;3.70;;;12.30;99.90;;;;;;4966871;28;20484;-79
2021/10/03 04:28:30;;;;;;;5.70;3.33;;;12.20;99.90;;;;;;4972455;28;20054;-79
2021/10/03 04:30:56;;;;;;;5.35;4.10;;;12.20;99.90;;;;;;4949398;28;20045;-79
2021/10/03 04:33:22;;;;;;;6.25;3.53;;;12.20;99.90;;;;;;4982890;28;20030;-80
2021/10/03 04:35:47;;;;;;;5.32;3.60;;;12.20;99.90;;;;;;4985416;28;20026;-81
2021/10/03 04:38:13;;;;;;;6.40;3.97;;;12.20;99.90;;;;;;4945540;28;20548;-80
2021/10/03 04:40:39;;;;;;;6.53;3.40;;;12.20;99.90;;;;;;4979364;28;20069;-79
2021/10/03 04:43:05;;;;;;;5.72;3.75;;;12.20;99.90;;;;;;4981924;28;20031;-79
2021/10/03 04:45:30;;;;;;;7.13;4.28;;;12.20;99.90;;;;;;4986122;28;20035;-79
2021/10/03 04:48:00;;;;;;;5.20;3.53;;;12.10;99.90;;;;;;4973088;28;20030;-80
2021/10/03 04:50:26;;;;;;;5.80;3.90;;;12.20;99.90;;;;;;4977123;28;20797;-79
2021/10/03 04:52:52;;;;;;;5.60;4.07;;;12.20;99.90;;;;;;4953147;28;20027;-80
2021/10/03 04:55:17;;;;;;;5.85;4.20;;;12.20;99.90;;;;;;4981739;28;20041;-79
2021/10/03 04:57:43;;;;;;;6.97;4.15;;;12.20;99.90;;;;;;4970511;28;20034;-79
2021/10/03 05:00:10;;;;;;;6.13;4.03;;;12.10;99.90;;;;;;4964391;28;20035;-77
2021/10/03 05:02:36;;;;;;;5.15;3.72;;;12.10;99.90;;;;;;4969000;28;20081;-79
2021/10/03 05:05:03;;;;;;;6.68;4.05;;;12.20;99.90;;;;;;4981938;28;20039;-80
2021/10/03 05:07:29;;;;;;;5.22;3.47;;;12.10;99.90;;;;;;4982541;28;20118;-79
2021/10/03 05:09:54;;;;;;;6.32;4.55;;;12.10;99.90;;;;;;4979770;28;20070;-80
2021/10/03 05:12:20;;;;;;;7.18;4.18;;;12.20;99.90;;;;;;4983168;28;20035;-80
2021/10/03 05:14:46;;;;;;;5.65;3.80;;;12.10;99.90;;;;;;4967814;28;20034;-80
2021/10/03 05:17:12;;;;;;;5.35;4.03;;;12.20;99.90;;;;;;4985831;28;20039;-79
2021/10/03 05:19:38;;;;;;;6.53;4.13;;;12.20;99.90;;;;;;4979770;28;20026;-79
2021/10/03 05:22:04;;;;;;;8.30;4.43;;;12.20;99.90;;;;;;4965710;28;20078;-79
2021/10/03 05:24:32;;;;;;;7.70;4.30;;;12.20;99.90;;;;;;4979373;28;20102;-79
2021/10/03 05:26:58;;;;;;;4.95;3.72;;;12.20;99.90;;;;;;4970427;28;20031;-79
2021/10/03 05:29:24;;;;;;;6.38;3.95;;;12.30;99.90;;;;;;4974923;28;20045;-79
2021/10/03 05:31:49;;;;;;;7.22;4.15;;;12.30;99.90;;;;;;4964024;28;20027;-81
2021/10/03 05:34:15;;;;;;;10.18;3.50;;;12.40;99.90;;;;;;4968724;28;20576;-80
2021/10/03 05:36:41;;;;;;;7.60;4.65;;;12.40;99.90;;;;;;4965820;28;20062;-79
2021/10/03 05:39:06;;;;;;;5.25;4.07;;;12.40;99.90;;;;;;4982271;28;20547;-80
2021/10/03 05:41:32;;;;;;;5.47;3.88;;;12.40;99.90;;;;;;4979227;28;20057;-80
2021/10/03 05:43:58;;;;;;;8.52;4.45;;;12.40;99.90;;;;;;4979084;28;20034;-80
2021/10/03 05:46:24;;;;;;;6.40;4.45;;;12.40;99.90;;;;;;4962310;28;20039;-79
2021/10/03 05:48:50;;;;;;;6.93;4.07;;;12.40;99.90;;;;;;4960016;28;20027;-79
2021/10/03 05:51:16;;;;;;;6.32;4.20;;;12.50;99.90;;;;;;4976154;28;20038;-78
2021/10/03 05:53:42;;;;;;;7.30;4.75;;;12.50;99.90;;;;;;4967865;28;20565;-80
2021/10/03 05:56:08;;;;;;;4.63;3.30;;;12.50;99.90;;;;;;4986426;28;20050;-80
2021/10/03 05:58:33;;;;;;;5.93;4.10;;;12.50;99.90;;;;;;4979058;28;20035;-79
2021/10/03 06:01:00;;;;;;;5.30;3.97;;;12.50;99.90;;;;;;4979436;28;20452;-80
2021/10/03 06:03:26;;;;;;;5.85;4.38;;;12.50;99.90;;;;;;4986212;28;20037;-80
2021/10/03 06:05:51;;;;;;;7.72;4.45;;;12.50;99.90;;;;;;4983906;28;20026;-79
2021/10/03 06:08:17;;;;;;;7.00;4.30;;;12.50;99.90;;;;;;4967365;28;20489;-77
2021/10/03 06:10:44;;;;;;;6.50;4.47;;;12.50;99.90;;;;;;4963732;28;20034;-79
2021/10/03 06:13:10;;;;;;;6.90;4.60;;;12.60;99.90;;;;;;4964482;28;20370;-79
2021/10/03 06:15:39;;;;;;;5.18;4.10;;;12.60;99.90;;;;;;4988410;28;20512;-80
2021/10/03 06:18:06;;;;;;;7.88;4.78;;;12.60;99.90;;;;;;4982901;28;20038;-79
2021/10/03 06:20:32;;;;;;;6.70;4.63;;;12.70;99.90;;;;;;4977072;28;20034;-78
2021/10/03 06:22:57;;;;;;;7.78;4.70;;;12.70;99.90;;;;;;4983148;28;20061;-80
2021/10/03 06:25:23;;;;;;;5.78;4.07;;;12.70;99.90;;;;;;4979554;28;20022;-79
2021/10/03 06:27:50;;;;;;;6.38;4.30;;;12.80;99.90;;;;;;4982933;28;20038;-80
2021/10/03 06:30:16;;;;;;;10.00;4.70;;;12.90;99.90;;;;;;4975162;28;20039;-79
2021/10/03 06:32:42;;;;;;;8.70;5.10;;;13.00;99.90;;;;;;4934926;28;20031;-78
2021/10/03 06:35:07;;;;;;;5.90;4.20;;;13.00;99.90;;;;;;4982897;28;20595;-78
2021/10/03 06:37:33;;;;;;;5.78;3.97;;;13.10;99.90;;;;;;4966286;28;20039;-79
2021/10/03 06:39:59;;;;;;;7.10;4.45;;;13.20;99.90;;;;;;4966113;28;20038;-80
2021/10/03 06:42:25;;;;;;;6.22;4.45;;;13.30;99.90;;;;;;4978309;28;20150;-79
2021/10/03 06:44:50;;;;;;;5.45;4.05;;;13.40;99.90;;;;;;4980537;28;20027;-79
2021/10/03 06:47:16;;;;;;;6.47;4.25;;;13.40;99.90;;;;;;4982366;28;20110;-79
2021/10/03 06:49:43;;;;;;;6.13;3.97;;;13.40;99.90;;;;;;4981920;28;20031;-79
2021/10/03 06:52:10;;;;;;;5.78;3.95;;;13.50;99.90;;;;;;4977176;28;20050;-79
2021/10/03 06:54:35;;;;;;;6.75;4.10;;;13.60;99.90;;;;;;4980779;28;20242;-80
2021/10/03 06:57:02;;;;;;;9.07;4.45;;;13.60;99.90;;;;;;4959852;28;20426;-80
2021/10/03 06:59:31;;;;;;;6.28;4.25;;;13.70;99.90;;;;;;4972649;28;20037;-80
2021/10/03 07:01:58;;;;;;;8.50;4.05;;;13.60;99.90;;;;;;4985486;28;20039;-80
2021/10/03 07:04:24;;;;;;;6.15;4.05;;;13.70;99.90;;;;;;4978974;28;20041;-78
2021/10/03 07:06:49;;;;;;;6.82;4.63;;;13.70;99.90;;;;;;4970008;28;20121;-79
2021/10/03 07:09:15;;;;;;;7.50;4.10;;;13.70;99.90;;;;;;4977702;28;20481;-79
2021/10/03 07:11:41;;;;;;;10.32;4.82;;;13.80;99.90;;;;;;4958049;28;20158;-79
2021/10/03 07:14:06;;;;;;;7.45;4.88;;;13.80;99.90;;;;;;4961732;28;20034;-78
2021/10/03 07:16:32;;;;;;;6.82;4.30;;;13.80;99.90;;;;;;4936636;28;20035;-80
2021/10/03 07:18:58;;;;;;;6.13;4.35;;;13.80;99.90;;;;;;4978775;28;20050;-79
2021/10/03 07:21:23;;;;;;;5.85;4.05;;;13.90;99.90;;;;;;4957201;28;20054;-79
2021/10/03 07:23:49;;;;;;;5.65;3.92;;;13.90;99.90;;;;;;4954917;28;20486;-78
2021/10/03 07:26:15;;;;;;;6.43;4.55;;;14.00;99.90;;;;;;4963839;28;20046;-78
2021/10/03 07:28:40;;;;;;;6.85;4.35;;;14.00;99.90;;;;;;4968570;28;20042;-79
2021/10/03 07:31:07;;;;;;;6.72;4.30;;;14.00;99.90;;;;;;4955743;28;20125;-79
2021/10/03 07:33:33;;;;;;;5.70;3.78;;;14.00;99.90;;;;;;4980263;28;20114;-79
2021/10/03 07:35:59;;;;;;;6.72;4.50;;;14.10;99.90;;;;;;4979361;28;20039;-79
2021/10/03 07:38:24;;;;;;;5.13;3.72;;;14.10;99.90;;;;;;4974222;28;20658;-79
2021/10/03 07:40:50;;;;;;;6.50;3.90;;;14.20;99.90;;;;;;4975724;28;20023;-78
2021/10/03 07:43:16;;;;;;;7.30;4.15;;;14.30;99.90;;;;;;4978088;28;20035;-78
2021/10/03 07:45:42;;;;;;;6.22;4.57;;;14.30;99.90;;;;;;4981679;28;20030;-78
2021/10/03 07:48:07;;;;;;;6.25;3.53;;;14.40;99.90;;;;;;4983086;28;20109;-78
2021/10/03 07:50:33;;;;;;;6.55;4.13;;;14.50;99.90;;;;;;4972873;28;20042;-79
2021/10/03 07:52:59;;;;;;;7.18;4.38;;;14.40;99.90;;;;;;4978302;28;20027;-78
2021/10/03 07:55:28;;;;;;;5.60;4.18;;;14.50;99.90;;;;;;4979108;28;20038;-79
2021/10/03 07:58:02;;;;;;;5.70;4.00;;;14.60;99.90;;;;;;4982398;28;20027;-79
2021/10/03 08:00:29;;;;;;;5.25;3.80;;;14.50;99.90;;;;;;4974296;28;20043;-79
2021/10/03 08:02:55;;;;;;;10.02;4.10;;;14.50;99.90;;;;;;4981264;28;20668;-78
2021/10/03 08:05:21;;;;;;;7.00;3.88;;;14.70;99.90;;;;;;4963601;28;20035;-78
2021/10/03 08:07:46;;;;;;;4.63;3.78;;;14.70;99.90;;;;;;4968047;28;20027;-80
2021/10/03 08:10:12;;;;;;;6.30;3.78;;;14.80;99.90;;;;;;4977345;28;20592;-77
2021/10/03 08:12:38;;;;;;;5.30;3.88;;;14.90;99.90;;;;;;4980966;28;20034;-79
2021/10/03 08:15:04;;;;;;;5.22;3.95;;;15.00;99.90;;;;;;4985190;28;20030;-79
2021/10/03 08:17:30;;;;;;;6.32;3.90;;;15.00;99.90;;;;;;4984638;28;20536;-79
2021/10/03 08:19:55;;;;;;;10.48;5.00;;;15.10;99.90;;;;;;4965589;28;20043;-79
2021/10/03 08:22:21;;;;;;;6.30;3.90;;;15.30;99.90;;;;;;4982640;28;20090;-78
2021/10/03 08:24:46;;;;;;;6.15;4.07;;;15.40;99.90;;;;;;4963865;28;20030;-77
2021/10/03 08:27:12;;;;;;;5.93;3.95;;;15.50;99.90;;;;;;4979920;28;20027;-78
2021/10/03 08:29:38;;;;;;;4.80;3.67;;;15.50;99.90;;;;;;4974758;28;20069;-78
2021/10/03 08:32:04;;;;;;;6.47;3.83;;;15.60;99.90;;;;;;4963468;28;20085;-77
2021/10/03 08:34:30;;;;;;;3.35;3.05;;;15.50;99.90;;;;;;4965505;28;20105;-78
2021/10/03 08:36:56;;;;;;;6.47;3.80;;;15.50;99.90;;;;;;4979297;28;20039;-79
2021/10/03 08:39:21;;;;;;;3.42;3.13;;;15.60;99.90;;;;;;4977055;28;20494;-80
2021/10/03 08:41:47;;;;;;;13.75;4.63;;;15.70;99.90;;;;;;4977534;28;20050;-77
2021/10/03 08:44:14;;;;;;;4.03;3.20;;;15.70;99.90;;;;;;4980225;28;20169;-80
2021/10/03 08:46:41;;;;;;;5.63;3.85;;;15.80;99.90;;;;;;4973411;28;20038;-79
2021/10/03 08:49:07;;;;;;;4.53;3.63;;;15.90;99.90;;;;;;4982189;28;20559;-80
2021/10/03 08:51:33;;;;;;;5.40;3.65;;;16.00;99.90;;;;;;4958231;28;20050;-79
2021/10/03 08:53:59;;;;;;;5.55;3.42;;;16.10;99.90;;;;;;4980050;28;20031;-79
2021/10/03 08:56:25;;;;;;;4.95;3.30;;;16.20;99.90;;;;;;4977746;28;20027;-78
2021/10/03 08:58:51;;;;;;;10.10;4.03;;;16.20;99.90;;;;;;4974045;28;20890;-78
2021/10/03 09:01:20;;;;;;;5.65;3.85;;;16.30;99.90;;;;;;4959891;28;20054;-82
2021/10/03 09:03:47;;;;;;;6.18;3.78;;;16.40;99.90;;;;;;4981550;28;20130;-79
2021/10/03 09:06:12;;;;;;;5.32;3.55;;;16.50;99.90;;;;;;4981252;28;20037;-78
2021/10/03 09:08:43;;;;;;;4.38;3.28;;;16.50;99.90;;;;;;4977687;28;20035;-79
2021/10/03 09:11:14;;;;;;;4.68;3.70;;;16.60;99.90;;;;;;4973343;28;20049;-79
2021/10/03 09:13:47;;;;;;;3.80;2.97;;;16.80;99.90;;;;;;4976750;28;20118;-79
2021/10/03 09:16:21;;;;;;;6.60;3.55;;;16.80;99.90;;;;;;4975851;28;20051;-79
2021/10/03 09:18:59;;;;;;;6.78;3.72;;;16.80;99.90;;;;;;4967140;28;20022;-79
2021/10/03 09:21:38;;;;;;;7.97;3.72;;;16.80;99.90;;;;;;4978801;28;20545;-78
2021/10/03 09:24:07;;;;;;;3.70;3.22;;;16.90;99.90;;;;;;4982660;28;20045;-77
2021/10/03 09:26:34;;;;;;;3.83;2.90;;;17.00;99.90;;;;;;4978584;28;20504;-78
2021/10/03 09:29:22;;;;;;;3.90;3.15;;;17.10;99.90;;;;;;4944834;28;20146;-78
2021/10/03 09:32:11;;;;;;;4.68;3.50;;;17.20;99.90;;;;;;4980227;28;20038;-78
2021/10/03 09:34:46;;;;;;;4.18;3.33;;;17.30;99.90;;;;;;4981594;28;20511;-77
2021/10/03 09:37:29;;;;;;;5.93;3.47;;;17.40;99.90;;;;;;4960810;28;20061;-79
2021/10/03 09:40:13;;;;;;;4.32;3.22;;;17.50;99.90;;;;;;4958707;28;20051;-77
2021/10/03 09:42:40;;;;;;;3.45;3.13;;;17.60;99.90;;;;;;4971949;28;20058;-80
2021/10/03 09:45:21;;;;;;;6.07;3.28;;;17.60;99.90;;;;;;4970870;28;20038;-79
2021/10/03 09:48:00;;;;;;;4.22;3.20;;;17.60;99.90;;;;;;4981146;28;20038;-78
2021/10/03 09:50:27;;;;;;;4.00;3.10;;;17.60;99.90;;;;;;4937874;28;20042;-77
2021/10/03 09:52:53;;;;;;;4.57;3.83;;;17.50;99.90;;;;;;4976398;28;20030;-79
2021/10/03 09:55:20;;;;;;;3.92;3.30;;;17.50;99.90;;;;;;4943775;28;20073;-77
2021/10/03 09:57:46;;;;;;;7.70;4.15;;;17.50;99.90;;;;;;4982309;28;20058;-77
2021/10/03 10:00:13;;;;;;;4.68;3.58;;;17.50;99.90;;;;;;4957513;28;20039;-79
2021/10/03 10:02:40;;;;;;;5.03;3.85;;;17.50;99.90;;;;;;4963227;28;20043;-77
2021/10/03 10:05:07;;;;;;;5.35;3.75;;;17.60;99.90;;;;;;4979032;28;20381;-78
2021/10/03 10:07:33;;;;;;;5.28;3.90;;;17.80;99.90;;;;;;4963016;28;20027;-78
2021/10/03 10:09:59;;;;;;;4.72;3.63;;;17.90;99.90;;;;;;4974535;28;20085;-78
2021/10/03 10:12:26;;;;;;;6.10;4.28;;;18.00;99.90;;;;;;4972836;28;20142;-77
2021/10/03 10:15:01;;;;;;;3.67;2.90;;;18.10;99.90;;;;;;4970783;28;20034;-79
2021/10/03 10:17:40;;;;;;;7.43;3.57;;;18.20;99.90;;;;;;4973275;28;20114;-79
2021/10/03 10:20:20;;;;;;;5.97;3.92;;;18.30;99.90;;;;;;4956108;28;20302;-79
2021/10/03 10:23:09;;;;;;;3.53;2.97;;;18.40;99.90;;;;;;4961992;28;20025;-77
2021/10/03 10:25:46;;;;;;;5.07;3.90;;;18.40;99.90;;;;;;4977061;28;20034;-79
2021/10/03 10:28:18;;;;;;;4.28;3.40;;;18.40;99.90;;;;;;4974109;28;20400;-79
2021/10/03 10:31:23;;;;;;;4.38;3.13;;;18.50;99.90;;;;;;4967740;28;20030;-79
2021/10/03 10:33:49;;;;;;;3.75;3.15;;;18.60;99.90;;;;;;4974646;28;20065;-78
2021/10/03 10:36:28;;;;;;;5.20;3.55;;;18.60;99.90;;;;;;4960853;28;20030;-78
2021/10/03 10:39:09;;;;;;;3.72;3.08;;;18.50;99.90;;;;;;4972462;28;20043;-77
2021/10/03 10:41:37;;;;;;;4.85;3.63;;;18.50;99.90;;;;;;4956062;28;20030;-79
2021/10/03 10:44:28;;;;;;;4.88;3.42;;;18.50;99.90;;;;;;4978145;28;20027;-77
2021/10/03 10:46:58;;;;;;;4.13;3.47;;;18.50;99.90;;;;;;4977139;28;20021;-78
2021/10/03 10:49:27;;;;;;;5.15;3.10;;;18.60;99.90;;;;;;4968397;28;20038;-80
2021/10/03 10:52:17;;;;;;;4.13;3.10;;;18.60;99.90;;;;;;4974230;28;20035;-77
2021/10/03 10:55:02;;;;;;;4.53;3.28;;;18.70;99.90;;;;;;4958520;28;20031;-78
2021/10/03 10:57:30;;;;;;;4.82;2.50;;;18.80;99.90;;;;;;4974549;28;20042;-79
2021/10/03 11:00:18;;;;;;;4.90;2.90;;;18.90;99.90;;;;;;4936922;28;20045;-79
2021/10/03 11:02:58;;;;;;;3.38;2.78;;;18.90;99.90;;;;;;4972367;28;20034;-77
2021/10/03 11:05:40;;;;;;;3.70;2.80;;;18.90;99.90;;;;;;4973841;28;20554;-79
2021/10/03 11:08:08;;;;;;;3.83;2.83;;;18.90;99.90;;;;;;4977960;28;20105;-79
2021/10/03 11:10:58;;;;;;;3.28;2.72;;;18.90;99.90;;;;;;4944865;28;20039;-77
2021/10/03 11:13:47;;;;;;;3.72;2.95;;;19.00;99.90;;;;;;4961235;28;20145;-77
2021/10/03 11:16:19;;;;;;;3.83;2.85;;;19.00;99.90;;;;;;4967060;28;20089;-78
2021/10/03 11:18:52;;;;;;;3.28;2.72;;;19.10;99.90;;;;;;4974932;28;20038;-78
2021/10/03 11:21:30;;;;;;;4.50;2.60;;;19.20;99.90;;;;;;4970704;28;20026;-78
2021/10/03 11:23:58;;;;;;;3.67;2.75;;;19.30;99.90;;;;;;4975348;28;20042;-77
2021/10/03 11:26:24;;;;;;;4.55;2.80;;;19.30;99.90;;;;;;4974693;28;20030;-80
2021/10/03 11:28:55;;;;;;;5.72;2.58;;;19.40;99.90;;;;;;4973892;28;20038;-76
2021/10/03 11:31:48;;;;;;;3.03;2.35;;;19.60;99.90;;;;;;4957404;28;20062;-79
2021/10/03 11:34:49;;;;;;;2.75;2.25;;;19.70;99.90;;;;;;4973367;28;20022;-78
2021/10/03 11:37:35;;;;;;;3.45;2.60;;;19.80;99.90;;;;;;4971266;28;20113;-77
2021/10/03 11:40:19;;;;;;;4.80;2.40;;;20.00;99.90;;;;;;4971076;28;20076;-79
2021/10/03 11:42:56;;;;;;;2.85;2.40;;;20.10;99.90;;;;;;4973928;28;20516;-78
2021/10/03 11:45:26;;;;;;;2.75;2.22;;;20.20;99.90;;;;;;4958540;28;20034;-79
2021/10/03 11:47:56;;;;;;;2.40;2.10;;;20.20;99.90;;;;;;4960257;28;20058;-81
2021/10/03 11:50:45;;;;;;;2.75;2.08;;;20.30;99.90;;;;;;4968331;28;20556;-79
2021/10/03 11:53:14;;;;;;;2.80;2.40;;;20.30;99.90;;;;;;4982101;28;20046;-79
2021/10/03 11:55:41;;;;;;;2.45;2.22;;;20.40;99.90;;;;;;4956030;28;20041;-79
2021/10/03 11:58:13;;;;;;;2.58;2.30;;;20.50;99.90;;;;;;4943318;28;20049;-80
2021/10/03 12:00:57;;;;;;;2.85;2.20;;;20.50;99.90;;;;;;4974180;28;20042;-80
2021/10/03 12:03:26;;;;;;;3.03;2.60;;;20.70;99.90;;;;;;4978217;28;20031;-78
2021/10/03 12:05:52;;;;;;;2.47;2.10;;;20.60;99.90;;;;;;4978930;28;20019;-78
2021/10/03 12:08:20;;;;;;;3.78;2.60;;;20.50;99.90;;;;;;4977962;28;20026;-78
2021/10/03 12:10:49;;;;;;;3.20;2.65;;;20.50;99.90;;;;;;4977842;28;20057;-78
2021/10/03 12:13:21;;;;;;;3.13;2.40;;;20.40;99.90;;;;;;4985675;28;20062;-76
2021/10/03 12:16:17;;;;;;;3.20;2.40;;;20.50;99.90;;;;;;4969820;28;20034;-78
2021/10/03 12:18:47;;;;;;;3.15;2.30;;;20.50;99.00;;;;;;4977988;28;20027;-78
2021/10/03 12:21:31;;;;;;;4.32;2.30;;;20.50;99.90;;;;;;4984536;28;20029;-78
2021/10/03 12:24:08;;;;;;;2.88;2.60;;;20.50;99.90;;;;;;4951240;28;20118;-78
2021/10/03 12:26:37;;;;;;;5.22;2.47;;;20.60;99.90;;;;;;4972993;28;20031;-77
2021/10/03 12:29:05;;;;;;;2.83;2.55;;;20.60;99.90;;;;;;4981224;28;20081;-77
2021/10/03 12:31:43;;;;;;;3.67;2.50;;;20.70;99.90;;;;;;4966459;28;20034;-77
2021/10/03 12:34:15;;;;;;;4.75;2.67;;;20.90;99.90;;;;;;4981465;28;20082;-77
2021/10/03 12:36:49;;;;;;;5.95;2.63;;;20.90;99.80;;;;;;4985635;28;20030;-78
2021/10/03 12:39:16;;;;;;;5.55;2.83;;;21.00;99.50;;;;;;4980719;28;20113;-78
2021/10/03 12:41:42;;;;;;;2.65;2.40;;;21.10;98.00;;;;;;4945965;28;20915;-76
2021/10/03 12:44:08;;;;;;;2.78;2.30;;;21.10;97.30;;;;;;4985069;28;20037;-77
2021/10/03 12:46:35;;;;;;;3.03;2.60;;;21.10;98.00;;;;;;4965769;28;20605;-78
2021/10/03 12:49:01;;;;;;;2.70;2.33;;;21.00;97.20;;;;;;4965334;28;20489;-78
2021/10/03 12:51:27;;;;;;;3.25;2.50;;;20.90;98.10;;;;;;4978971;28;20239;-78
2021/10/03 12:53:53;;;;;;;3.60;2.53;;;20.80;98.20;;;;;;4981955;28;20035;-78